Yosemite National Park, CA

10:58 PM PST on December 24, 2014 (GMT -0800)
Loggers Retreat | Change Station
CLOSE
Current Station
Personal Weather Station
Location: Fish Camp, CA
Elevation: 4960 ft
Nearby Weather Stations

Elev 4960 ft 37.45 °N, 119.65 °W | Updated 28 minutes ago

Overcast
Overcast
33.8 °F
Feels Like 34 °F
N
0.0
Wind Variable Wind from NNE
Gusts 6.0 mph

Today
High -- | Low -- °F
--% Chance of Precip.
Yesterday
High -- | Low -- °F
Precip. -- in
7:11 AM 4:44 PM
Waxing Crescent, 14% visible
Pressure 29.92 in
Visibility 10.0 miles
Clouds Clear
Windchill 34 °F
Dew Point 32 °F
Humidity 92%
Rainfall 0.37 in
Snow Depth Not available.
UV 0.0 out of 12
Pollen 3.40 out of 12
Air Quality Not available.
Flu Activity Not available.
METAR KO22 250635Z AUTO 31004KT 10SM CLR 04/04 A2992 RMK AO1

More Conditions Fewer Conditions

Pressure 29.92 in
Visibility 10.0 miles
Clouds Clear
Windchill 34 °F
Dew Point 32 °F
Humidity 92%
Rainfall 0.37 in
Snow Depth Not available.
UV 0.0 out of 12
Pollen 3.40 out of 12
Air Quality Not available.
Flu Activity Not available.
METAR KO22 250635Z AUTO 31004KT 10SM CLR 04/04 A2992 RMK AO1

More Conditions Fewer Conditions

10-Day Weather Forecast

Almanac

Astronomy

Dec. 24, 2014 Rise Set
Actual Time
Civil Twilight
Nautical Twilight
Astronomical Twilight
Moon
Length of Visible Light
Length of Day
Tomorrow will be .
, % of the Moon is Illuminated

Today's Extremes

State Highs State Lows

Community

WunderPhotos

Upload Photos

1,780,249 photos uploaded!

WunderBlogs® & News

Nearby

Air Quality

  Air Quality AQ Index Pollutant
Not available.

Snow Depth

Station Depth Elevation

Earthquake Activity

City Distance Mag. Time & Date
Minimum magnitude displayed is 2.5.

Coastal Water Temperatures

Place Temperature

Nearby Weather Stations